createdAt,value
2022-09-16T00:00:55.232Z,15.88
2022-09-16T00:01:55.209Z,15.86
2022-09-16T00:02:55.159Z,15.82
2022-09-16T00:03:55.166Z,15.82
2022-09-16T00:04:55.144Z,15.84
2022-09-16T00:05:55.107Z,15.90
2022-09-16T00:06:55.099Z,15.82
2022-09-16T00:07:55.103Z,15.83
2022-09-16T00:08:55.072Z,15.82
2022-09-16T00:09:55.069Z,15.88
2022-09-16T00:10:55.051Z,15.84
2022-09-16T00:11:55.037Z,15.76
2022-09-16T00:12:55.070Z,15.75
2022-09-16T00:13:55.022Z,15.72
2022-09-16T00:14:55.019Z,15.73
2022-09-16T00:15:55.099Z,15.65
2022-09-16T00:16:54.991Z,15.73
2022-09-16T00:17:54.973Z,15.72
2022-09-16T00:18:54.977Z,15.65
2022-09-16T00:19:54.976Z,15.65
2022-09-16T00:20:54.982Z,15.64
2022-09-16T00:21:54.929Z,15.79
2022-09-16T00:22:54.926Z,15.67
2022-09-16T00:23:55.019Z,15.68
2022-09-16T00:24:54.953Z,15.68
2022-09-16T00:25:54.890Z,15.73
2022-09-16T00:26:54.889Z,15.70
2022-09-16T00:27:54.862Z,15.64
2022-09-16T00:28:54.855Z,15.72
2022-09-16T00:29:54.841Z,15.55
2022-09-16T00:30:54.840Z,15.68
2022-09-16T00:31:54.894Z,15.70
2022-09-16T00:32:54.820Z,15.72
2022-09-16T00:33:54.804Z,15.68
2022-09-16T00:34:54.786Z,15.61
2022-09-16T00:35:54.804Z,15.57
2022-09-16T00:36:54.788Z,15.58
2022-09-16T00:37:54.783Z,15.61
2022-09-16T00:38:54.813Z,15.62
2022-09-16T00:39:54.781Z,15.68
2022-09-16T00:40:54.728Z,15.57
2022-09-16T00:41:54.726Z,15.57
2022-09-16T00:42:54.712Z,15.59
2022-09-16T00:43:54.705Z,15.52
2022-09-16T00:44:54.707Z,15.54
2022-09-16T00:45:54.677Z,15.54
2022-09-16T00:46:54.718Z,15.46
2022-09-16T00:47:54.668Z,15.55
2022-09-16T00:48:54.657Z,15.57
2022-09-16T00:49:54.656Z,15.58
2022-09-16T00:50:54.615Z,15.49
2022-09-16T00:51:54.636Z,15.61
2022-09-16T00:52:54.592Z,15.64
2022-09-16T00:53:54.643Z,15.62
2022-09-16T00:54:54.600Z,15.64
2022-09-16T00:55:54.559Z,15.64
2022-09-16T00:56:54.549Z,15.61
2022-09-16T00:57:54.558Z,15.68
2022-09-16T00:58:54.551Z,15.64
2022-09-16T00:59:54.527Z,15.55
2022-09-16T01:00:54.546Z,15.58
2022-09-16T01:01:54.528Z,15.58
2022-09-16T01:02:54.516Z,15.61
2022-09-16T01:03:54.473Z,15.61
2022-09-16T01:04:54.461Z,15.57
2022-09-16T01:05:54.458Z,15.59
2022-09-16T01:06:54.463Z,15.62
2022-09-16T01:07:54.452Z,15.57
2022-09-16T01:08:54.535Z,15.59
2022-09-16T01:09:54.406Z,15.54
2022-09-16T01:10:54.414Z,15.58
2022-09-16T01:11:54.402Z,15.58
2022-09-16T01:12:54.386Z,15.58
2022-09-16T01:13:54.367Z,15.47
2022-09-16T01:14:54.351Z,15.52
2022-09-16T01:15:54.426Z,15.52
2022-09-16T01:16:54.336Z,15.58
2022-09-16T01:17:54.340Z,15.51
2022-09-16T01:18:54.312Z,15.57
2022-09-16T01:19:54.310Z,15.57
2022-09-16T01:20:54.315Z,15.55
2022-09-16T01:21:54.296Z,15.51
2022-09-16T01:22:54.266Z,15.61
2022-09-16T01:23:54.340Z,15.61
2022-09-16T01:24:54.244Z,15.61
2022-09-16T01:25:54.240Z,15.64
2022-09-16T01:26:54.241Z,15.58
2022-09-16T01:27:54.239Z,15.57
2022-09-16T01:28:54.209Z,15.61
2022-09-16T01:29:54.206Z,15.61
2022-09-16T01:30:54.184Z,15.62
2022-09-16T01:31:54.186Z,15.61
2022-09-16T01:32:54.173Z,15.57
2022-09-16T01:33:54.153Z,15.62
2022-09-16T01:34:54.151Z,15.62
2022-09-16T01:35:54.124Z,15.62
2022-09-16T01:36:54.116Z,15.57
2022-09-16T01:37:54.113Z,15.59
2022-09-16T01:38:54.169Z,15.52
2022-09-16T01:39:54.133Z,15.54
2022-09-16T01:40:54.088Z,15.55
2022-09-16T01:41:54.090Z,15.44
2022-09-16T01:42:54.049Z,15.46
2022-09-16T01:43:54.036Z,15.49
2022-09-16T01:44:54.083Z,15.39
2022-09-16T01:45:54.028Z,15.44
2022-09-16T01:46:54.102Z,15.47
2022-09-16T01:47:53.993Z,15.47
2022-09-16T01:48:54.055Z,15.47
2022-09-16T01:49:54.012Z,15.43
2022-09-16T01:50:53.987Z,15.49
2022-09-16T01:51:53.958Z,15.46
2022-09-16T01:52:53.965Z,15.44
2022-09-16T01:53:54.115Z,15.42
2022-09-16T01:54:53.914Z,15.37
2022-09-16T01:55:53.932Z,15.28
2022-09-16T01:56:53.918Z,15.33
2022-09-16T01:57:53.899Z,15.28
2022-09-16T01:58:53.892Z,15.24
2022-09-16T01:59:53.861Z,15.31
2022-09-16T02:00:53.877Z,15.28
2022-09-16T02:01:53.988Z,15.33
2022-09-16T02:02:53.869Z,15.25
2022-09-16T02:03:53.848Z,15.31
2022-09-16T02:04:53.808Z,15.29
2022-09-16T02:05:53.818Z,15.33
2022-09-16T02:06:53.785Z,15.28
2022-09-16T02:07:53.811Z,15.27
2022-09-16T02:08:53.875Z,15.29
2022-09-16T02:09:53.774Z,15.29
2022-09-16T02:10:53.745Z,15.35
2022-09-16T02:11:53.751Z,15.28
2022-09-16T02:12:53.723Z,15.28
2022-09-16T02:13:53.730Z,15.29
2022-09-16T02:14:53.718Z,15.31
2022-09-16T02:15:53.742Z,15.19
2022-09-16T02:16:53.752Z,15.11
2022-09-16T02:17:53.677Z,15.04
2022-09-16T02:18:53.692Z,15.14
2022-09-16T02:19:53.644Z,15.02
2022-09-16T02:20:53.639Z,15.06
2022-09-16T02:21:53.666Z,15.07
2022-09-16T02:22:53.649Z,15.06
2022-09-16T02:23:53.663Z,15.00
2022-09-16T02:24:53.621Z,14.99
2022-09-16T02:25:53.585Z,14.94
2022-09-16T02:26:53.576Z,15.03
2022-09-16T02:27:53.618Z,14.91
2022-09-16T02:28:53.557Z,15.00
2022-09-16T02:29:53.537Z,14.94
2022-09-16T02:30:53.584Z,14.97
2022-09-16T02:31:55.710Z,15.02
2022-09-16T02:32:53.524Z,14.99
2022-09-16T02:33:53.494Z,14.84
2022-09-16T02:34:53.527Z,14.96
2022-09-16T02:35:53.493Z,15.00
2022-09-16T02:36:53.465Z,15.00
2022-09-16T02:37:53.486Z,15.00
2022-09-16T02:38:53.454Z,14.97
2022-09-16T02:39:53.513Z,14.94
2022-09-16T02:40:53.416Z,15.04
2022-09-16T02:41:53.418Z,14.99
2022-09-16T02:42:53.404Z,15.07
2022-09-16T02:43:53.404Z,14.99
2022-09-16T02:44:53.398Z,14.92
2022-09-16T02:45:53.359Z,14.97
2022-09-16T02:46:53.370Z,15.00
2022-09-16T02:47:53.355Z,15.02
2022-09-16T02:48:53.327Z,14.97
2022-09-16T02:49:53.342Z,14.97
2022-09-16T02:50:53.341Z,15.04
2022-09-16T02:51:53.297Z,14.96
2022-09-16T02:52:53.295Z,14.97
2022-09-16T02:53:53.284Z,15.06
2022-09-16T02:54:53.263Z,15.02
2022-09-16T02:55:53.271Z,15.09
2022-09-16T02:56:53.254Z,14.97
2022-09-16T02:57:53.259Z,14.99
2022-09-16T02:58:53.236Z,14.99
2022-09-16T02:59:53.234Z,14.92
2022-09-16T03:00:53.203Z,14.92
2022-09-16T03:01:53.237Z,14.88
2022-09-16T03:02:53.267Z,14.96
2022-09-16T03:03:53.220Z,14.84
2022-09-16T03:04:53.153Z,14.96
2022-09-16T03:05:53.152Z,14.92
2022-09-16T03:06:53.139Z,14.97
2022-09-16T03:07:53.151Z,15.06
2022-09-16T03:08:53.187Z,15.03
2022-09-16T03:09:53.119Z,15.00
2022-09-16T03:10:53.092Z,15.00
2022-09-16T03:11:53.129Z,15.07
2022-09-16T03:12:53.079Z,15.03
2022-09-16T03:13:53.059Z,14.97
2022-09-16T03:14:53.107Z,15.09
2022-09-16T03:15:53.143Z,15.02
2022-09-16T03:16:53.036Z,15.04
2022-09-16T03:17:53.034Z,15.00
2022-09-16T03:18:53.003Z,14.96
2022-09-16T03:19:52.995Z,14.97
2022-09-16T03:20:52.985Z,14.94
2022-09-16T03:21:52.986Z,15.02
2022-09-16T03:22:52.960Z,14.89
2022-09-16T03:23:53.006Z,14.81
2022-09-16T03:24:52.939Z,14.81
2022-09-16T03:25:52.947Z,14.85
2022-09-16T03:26:52.942Z,14.82
2022-09-16T03:27:52.909Z,14.81
2022-09-16T03:28:52.901Z,14.73
2022-09-16T03:29:52.892Z,14.84
2022-09-16T03:30:52.898Z,14.91
2022-09-16T03:31:52.878Z,14.84
2022-09-16T03:32:52.879Z,14.84
2022-09-16T03:33:52.839Z,14.84
2022-09-16T03:34:52.850Z,14.78
2022-09-16T03:35:52.830Z,14.84
2022-09-16T03:36:52.813Z,14.70
2022-09-16T03:37:52.809Z,14.62
2022-09-16T03:38:52.852Z,14.63
2022-09-16T03:39:52.822Z,14.55
2022-09-16T03:40:52.768Z,14.62
2022-09-16T03:41:52.750Z,14.62
2022-09-16T03:42:52.766Z,14.63
2022-09-16T03:43:52.729Z,14.68
2022-09-16T03:44:52.729Z,14.69
2022-09-16T03:45:52.759Z,14.72
2022-09-16T03:46:52.713Z,14.69
2022-09-16T03:47:52.733Z,14.72
2022-09-16T03:48:52.678Z,14.69
2022-09-16T03:49:52.696Z,14.65
2022-09-16T03:50:52.658Z,14.68
2022-09-16T03:51:52.651Z,14.62
2022-09-16T03:52:52.644Z,14.62
2022-09-16T03:53:52.677Z,14.59
2022-09-16T03:54:52.633Z,14.60
2022-09-16T03:55:52.606Z,14.60
2022-09-16T03:56:52.597Z,14.59
2022-09-16T03:57:52.590Z,14.60
2022-09-16T03:58:52.567Z,14.58
2022-09-16T03:59:52.586Z,14.65
2022-09-16T04:00:52.566Z,14.58
2022-09-16T04:01:52.579Z,14.58
2022-09-16T04:02:52.564Z,14.59
2022-09-16T04:03:52.529Z,14.51
2022-09-16T04:04:52.506Z,14.53
2022-09-16T04:05:52.542Z,14.47
2022-09-16T04:06:52.503Z,14.47
2022-09-16T04:07:52.522Z,14.47
2022-09-16T04:08:52.608Z,14.44
2022-09-16T04:09:52.462Z,14.50
2022-09-16T04:10:52.438Z,14.50
2022-09-16T04:11:52.433Z,14.44
2022-09-16T04:12:52.428Z,14.47
2022-09-16T04:13:52.405Z,14.36
2022-09-16T04:14:52.402Z,14.36
2022-09-16T04:15:52.476Z,14.28
2022-09-16T04:16:52.373Z,14.29
2022-09-16T04:17:52.375Z,14.26
2022-09-16T04:18:52.378Z,14.18
2022-09-16T04:19:52.356Z,14.18
2022-09-16T04:20:52.329Z,14.15
2022-09-16T04:21:52.340Z,14.22
2022-09-16T04:22:52.307Z,14.18
2022-09-16T04:23:52.317Z,14.18
2022-09-16T04:24:52.284Z,14.14
2022-09-16T04:25:52.274Z,14.08
2022-09-16T04:26:52.279Z,14.11
2022-09-16T04:27:52.251Z,14.15
2022-09-16T04:28:52.284Z,14.17
2022-09-16T04:29:52.249Z,14.12
2022-09-16T04:30:52.303Z,14.03
2022-09-16T04:31:52.212Z,13.99
2022-09-16T04:32:52.226Z,13.95
2022-09-16T04:33:52.185Z,14.03
2022-09-16T04:34:52.180Z,13.99
2022-09-16T04:35:52.185Z,14.04
2022-09-16T04:36:52.164Z,14.11
2022-09-16T04:37:52.142Z,14.05
2022-09-16T04:38:52.153Z,14.15
2022-09-16T04:39:52.136Z,14.08
2022-09-16T04:40:52.110Z,14.20
2022-09-16T04:41:52.129Z,14.26
2022-09-16T04:42:52.135Z,14.15
2022-09-16T04:43:52.081Z,14.18
2022-09-16T04:44:52.073Z,14.23
2022-09-16T04:45:52.067Z,14.23
2022-09-16T04:46:52.043Z,14.07
2022-09-16T04:47:52.050Z,14.11
2022-09-16T04:48:52.031Z,14.07
2022-09-16T04:49:52.011Z,14.15
2022-09-16T04:50:52.018Z,14.18
2022-09-16T04:51:52.011Z,14.10
2022-09-16T04:52:51.984Z,14.17
2022-09-16T04:53:51.968Z,14.18
2022-09-16T04:54:51.980Z,14.20
2022-09-16T04:55:51.960Z,14.20
2022-09-16T04:56:51.952Z,14.23
2022-09-16T04:57:51.943Z,14.26
2022-09-16T04:58:51.931Z,14.28
2022-09-16T04:59:51.935Z,14.33
2022-09-16T05:00:51.898Z,14.36
2022-09-16T05:01:51.938Z,14.36
2022-09-16T05:02:51.878Z,14.35
2022-09-16T05:03:51.866Z,14.35
2022-09-16T05:04:51.854Z,14.33
2022-09-16T05:05:51.864Z,14.47
2022-09-16T05:06:51.822Z,14.43
2022-09-16T05:07:51.832Z,14.43
2022-09-16T05:08:51.809Z,14.40
2022-09-16T05:09:51.799Z,14.45
2022-09-16T05:10:51.792Z,14.44
2022-09-16T05:11:51.780Z,14.48
2022-09-16T05:12:51.762Z,14.50
2022-09-16T05:13:51.751Z,14.44
2022-09-16T05:14:51.732Z,14.41
2022-09-16T05:15:51.761Z,14.45
2022-09-16T05:16:51.745Z,14.45
2022-09-16T05:17:52.058Z,14.43
2022-09-16T05:18:51.693Z,14.43
2022-09-16T05:19:51.702Z,14.50
2022-09-16T05:20:51.668Z,14.47
2022-09-16T05:21:51.663Z,14.51
2022-09-16T05:22:51.683Z,14.51
2022-09-16T05:23:51.759Z,14.50
2022-09-16T05:24:51.642Z,14.48
2022-09-16T05:25:51.617Z,14.50
2022-09-16T05:26:51.609Z,14.60
2022-09-16T05:27:51.612Z,14.45
2022-09-16T05:28:51.581Z,14.50
2022-09-16T05:29:51.587Z,14.60
2022-09-16T05:30:51.613Z,14.68
2022-09-16T05:31:51.563Z,14.58
2022-09-16T05:32:51.568Z,14.60
2022-09-16T05:33:51.545Z,14.70
2022-09-16T05:34:51.519Z,14.72
2022-09-16T05:35:51.530Z,14.79
2022-09-16T05:36:51.503Z,14.84
2022-09-16T05:37:51.489Z,14.73
2022-09-16T05:39:18.061Z,14.81
2022-09-16T05:39:51.695Z,14.79
2022-09-16T05:40:51.483Z,14.73
2022-09-16T05:41:51.448Z,14.78
2022-09-16T05:42:51.434Z,14.85
2022-09-16T05:43:51.423Z,14.92
2022-09-16T05:44:51.409Z,14.99
2022-09-16T05:45:51.461Z,14.92
2022-09-16T05:46:51.399Z,14.85
2022-09-16T05:47:51.384Z,14.86
2022-09-16T05:48:51.373Z,14.94
2022-09-16T05:49:51.363Z,14.89
2022-09-16T05:50:51.349Z,14.88
2022-09-16T05:51:51.373Z,14.94
2022-09-16T05:52:51.320Z,15.02
2022-09-16T05:53:51.307Z,14.82
2022-09-16T05:54:51.297Z,14.85
2022-09-16T05:55:51.411Z,15.02
2022-09-16T05:56:51.293Z,14.99
2022-09-16T05:57:51.274Z,14.97
2022-09-16T05:58:51.252Z,15.02
2022-09-16T05:59:51.252Z,15.11
2022-09-16T06:00:51.311Z,15.10
2022-09-16T06:01:51.317Z,15.14
2022-09-16T06:02:51.282Z,15.15
2022-09-16T06:03:51.211Z,15.14
2022-09-16T06:04:51.188Z,15.14
2022-09-16T06:05:51.181Z,15.10
2022-09-16T06:06:51.192Z,15.22
2022-09-16T06:07:51.170Z,15.27
2022-09-16T06:08:51.158Z,15.18
2022-09-16T06:09:51.150Z,15.15
2022-09-16T06:10:51.143Z,15.31
2022-09-16T06:11:51.228Z,15.25
2022-09-16T06:12:51.100Z,15.33
2022-09-16T06:13:51.109Z,15.37
2022-09-16T06:14:51.082Z,15.29
2022-09-16T06:15:51.146Z,15.29
2022-09-16T06:16:51.059Z,15.27
2022-09-16T06:17:51.052Z,15.40
2022-09-16T06:18:51.034Z,15.29
2022-09-16T06:19:51.048Z,15.47
2022-09-16T06:20:51.014Z,15.35
2022-09-16T06:21:51.011Z,15.44
2022-09-16T06:22:51.003Z,15.44
2022-09-16T06:23:51.003Z,15.43
2022-09-16T06:24:50.978Z,15.44
2022-09-16T06:25:50.976Z,15.44
2022-09-16T06:26:50.980Z,15.46
2022-09-16T06:27:51.053Z,15.57
2022-09-16T06:28:50.947Z,15.49
2022-09-16T06:29:50.930Z,15.59
2022-09-16T06:30:50.937Z,15.62
2022-09-16T06:31:50.928Z,15.67
2022-09-16T06:32:50.886Z,15.72
2022-09-16T06:33:50.874Z,15.61
2022-09-16T06:34:50.892Z,15.58
2022-09-16T06:35:50.852Z,15.58
2022-09-16T06:36:50.853Z,15.51
2022-09-16T06:37:50.853Z,15.55
2022-09-16T06:38:50.819Z,15.64
2022-09-16T06:39:50.870Z,15.65
2022-09-16T06:40:50.809Z,15.73
2022-09-16T06:41:50.828Z,15.64
2022-09-16T06:42:50.793Z,15.65
2022-09-16T06:43:50.883Z,15.73
2022-09-16T06:44:50.756Z,15.61
2022-09-16T06:45:50.828Z,15.73
2022-09-16T06:46:50.832Z,15.58
2022-09-16T06:47:50.723Z,15.65
2022-09-16T06:48:50.740Z,15.73
2022-09-16T06:49:50.721Z,15.64
2022-09-16T06:50:50.684Z,15.64
2022-09-16T06:51:50.682Z,15.73
2022-09-16T06:52:50.692Z,15.88
2022-09-16T06:53:50.691Z,15.82
2022-09-16T06:54:50.658Z,15.88
2022-09-16T06:55:50.656Z,15.91
2022-09-16T06:56:50.624Z,15.91
2022-09-16T06:57:50.676Z,15.95
2022-09-16T06:58:50.625Z,15.95
2022-09-16T06:59:50.722Z,15.97
2022-09-16T07:00:50.689Z,15.92
2022-09-16T07:01:50.603Z,15.72
2022-09-16T07:02:50.576Z,15.82
2022-09-16T07:03:50.581Z,15.83
2022-09-16T07:04:50.538Z,15.75
2022-09-16T07:05:50.529Z,15.76
2022-09-16T07:07:08.680Z,15.90
2022-09-16T07:07:51.526Z,15.90
2022-09-16T07:08:50.491Z,15.91
2022-09-16T07:09:50.491Z,15.83
2022-09-16T07:10:50.472Z,15.90
2022-09-16T07:11:50.475Z,15.83
2022-09-16T07:12:50.479Z,15.98
2022-09-16T07:13:50.506Z,15.77
2022-09-16T07:14:50.433Z,15.91
2022-09-16T07:16:11.749Z,15.98
2022-09-16T07:16:51.481Z,16.04
2022-09-16T07:17:50.410Z,16.12
2022-09-16T07:18:50.419Z,16.15
2022-09-16T07:19:50.376Z,16.15
2022-09-16T07:20:50.364Z,16.21
2022-09-16T07:21:50.376Z,16.15
2022-09-16T07:22:50.340Z,16.13
2022-09-16T07:23:50.354Z,16.15
2022-09-16T07:24:50.316Z,16.17
2022-09-16T07:25:50.307Z,16.10
2022-09-16T07:26:50.332Z,16.20
2022-09-16T07:27:50.298Z,16.28
2022-09-16T07:28:50.282Z,16.33
2022-09-16T07:29:50.286Z,16.49
2022-09-16T07:30:50.332Z,16.38
2022-09-16T07:31:50.385Z,16.46
2022-09-16T07:32:50.248Z,16.36
2022-09-16T07:33:50.253Z,16.46
2022-09-16T07:34:50.215Z,16.46
2022-09-16T07:35:50.228Z,16.53
2022-09-16T07:36:50.231Z,16.51
2022-09-16T07:37:50.183Z,16.50
2022-09-16T07:38:50.170Z,16.56
2022-09-16T07:39:50.249Z,16.58
2022-09-16T07:40:50.211Z,16.61
2022-09-16T07:41:50.164Z,16.54
2022-09-16T07:42:50.126Z,16.54
2022-09-16T07:43:50.125Z,16.47
2022-09-16T07:44:50.101Z,16.61
2022-09-16T07:45:50.168Z,16.49
2022-09-16T07:46:50.095Z,16.43
2022-09-16T07:47:50.181Z,16.54
2022-09-16T07:48:50.057Z,16.51
2022-09-16T07:49:50.046Z,16.54
2022-09-16T07:50:50.037Z,16.57
2022-09-16T07:51:50.063Z,16.56
2022-09-16T07:52:50.045Z,16.51
2022-09-16T07:53:49.998Z,16.51
2022-09-16T07:54:49.989Z,16.66
2022-09-16T07:55:50.015Z,16.72
2022-09-16T07:56:49.975Z,16.66
2022-09-16T07:57:49.970Z,16.69
2022-09-16T07:58:49.985Z,16.50
2022-09-16T07:59:49.954Z,16.49
2022-09-16T08:00:49.937Z,16.64
2022-09-16T08:01:50.217Z,16.64
2022-09-16T08:02:49.969Z,16.65
2022-09-16T08:03:50.016Z,16.68
2022-09-16T08:04:49.930Z,16.65
2022-09-16T08:05:49.876Z,16.57
2022-09-16T08:06:49.860Z,16.68
2022-09-16T08:07:49.847Z,16.64
2022-09-16T08:08:49.840Z,16.57
2022-09-16T08:09:50.996Z,16.50
2022-09-16T08:10:49.855Z,16.58
2022-09-16T08:11:49.804Z,16.65
2022-09-16T08:12:49.786Z,16.71
2022-09-16T08:13:49.800Z,16.64
2022-09-16T08:14:49.765Z,16.69
2022-09-16T08:15:49.769Z,16.74
2022-09-16T08:16:49.799Z,16.69
2022-09-16T08:17:49.733Z,16.84
2022-09-16T08:18:49.720Z,16.81
2022-09-16T08:19:49.846Z,16.86
2022-09-16T08:20:49.700Z,16.89
2022-09-16T08:21:49.734Z,16.84
2022-09-16T08:22:49.681Z,16.86
2022-09-16T08:23:49.690Z,16.75
2022-09-16T08:24:49.660Z,16.75
2022-09-16T08:25:49.654Z,16.75
2022-09-16T08:26:49.699Z,16.75
2022-09-16T08:27:52.840Z,16.75
2022-09-16T08:29:08.786Z,16.76
2022-09-16T08:29:50.612Z,16.72
2022-09-16T08:30:52.693Z,16.79
2022-09-16T08:31:49.653Z,16.71
2022-09-16T08:32:49.571Z,16.72
2022-09-16T08:33:49.568Z,16.86
2022-09-16T08:34:49.544Z,16.99
2022-09-16T08:35:49.681Z,16.94
2022-09-16T08:36:49.528Z,17.01
2022-09-16T08:37:50.297Z,17.12
2022-09-16T08:38:49.514Z,17.30
2022-09-16T08:39:49.588Z,17.26
2022-09-16T08:40:49.484Z,17.29
2022-09-16T08:41:49.476Z,17.30
2022-09-16T08:42:49.467Z,17.39
2022-09-16T08:43:49.457Z,17.39
2022-09-16T08:44:49.439Z,17.45
2022-09-16T08:45:49.511Z,17.48
2022-09-16T08:46:49.445Z,17.38
2022-09-16T08:47:49.399Z,17.44
2022-09-16T08:48:49.463Z,17.41
2022-09-16T08:49:49.397Z,17.38
2022-09-16T08:50:49.383Z,17.39
2022-09-16T08:51:49.483Z,17.42
2022-09-16T08:52:49.408Z,17.24
2022-09-16T08:53:49.339Z,17.34
2022-09-16T08:54:49.323Z,17.12
2022-09-16T08:55:49.321Z,17.29
2022-09-16T08:56:49.315Z,17.38
2022-09-16T08:57:49.318Z,17.51
2022-09-16T08:58:49.284Z,17.46
2022-09-16T08:59:49.286Z,17.29
2022-09-16T09:00:49.328Z,17.29
2022-09-16T09:01:49.993Z,17.42
2022-09-16T09:02:49.422Z,17.46
2022-09-16T09:03:49.245Z,17.51
2022-09-16T09:04:49.221Z,17.64
2022-09-16T09:05:49.207Z,17.65
2022-09-16T09:06:49.227Z,17.70
2022-09-16T09:07:49.322Z,17.67
2022-09-16T09:08:49.183Z,17.70
2022-09-16T09:09:49.157Z,17.60
2022-09-16T09:10:49.156Z,17.64
2022-09-16T09:11:49.163Z,17.59
2022-09-16T09:12:49.747Z,17.60
2022-09-16T09:13:49.127Z,17.59
2022-09-16T09:14:49.102Z,17.64
2022-09-16T09:15:49.090Z,17.51
2022-09-16T09:16:49.192Z,17.59
2022-09-16T09:17:49.081Z,17.63
2022-09-16T09:18:49.064Z,17.38
2022-09-16T09:19:49.056Z,17.30
2022-09-16T09:20:49.035Z,17.19
2022-09-16T09:21:49.037Z,17.15
2022-09-16T09:22:49.015Z,17.22
2022-09-16T09:23:49.133Z,17.19
2022-09-16T09:24:51.477Z,17.05
2022-09-16T09:25:49.009Z,16.83
2022-09-16T09:26:49.003Z,16.84
2022-09-16T09:27:48.969Z,16.87
2022-09-16T09:28:48.961Z,16.74
2022-09-16T09:29:48.935Z,16.65
2022-09-16T09:30:48.937Z,16.61
2022-09-16T09:31:48.950Z,16.57
2022-09-16T09:32:50.020Z,16.51
2022-09-16T09:33:48.952Z,16.49
2022-09-16T09:34:48.892Z,16.53
2022-09-16T09:35:48.881Z,16.60
2022-09-16T09:36:48.876Z,16.61
2022-09-16T09:37:48.869Z,16.60
2022-09-16T09:38:48.849Z,16.66
2022-09-16T09:39:49.016Z,16.66
2022-09-16T09:40:48.833Z,16.76
2022-09-16T09:41:48.814Z,16.83
2022-09-16T09:42:48.797Z,16.99
2022-09-16T09:43:48.787Z,16.96
2022-09-16T09:44:48.889Z,17.05
2022-09-16T09:45:48.799Z,16.96
2022-09-16T09:46:48.748Z,17.05
2022-09-16T09:47:48.750Z,16.90
2022-09-16T09:48:54.282Z,17.05
2022-09-16T09:49:48.720Z,17.11
2022-09-16T09:50:48.702Z,17.12
2022-09-16T09:51:48.693Z,17.08
2022-09-16T09:52:48.689Z,17.14
2022-09-16T09:53:48.724Z,17.22
2022-09-16T09:54:48.663Z,17.27
2022-09-16T09:55:48.793Z,17.42
2022-09-16T09:56:48.674Z,17.20
2022-09-16T09:57:48.636Z,17.44
2022-09-16T09:58:48.614Z,17.49
2022-09-16T09:59:48.633Z,17.45
2022-09-16T10:00:48.718Z,17.41
2022-09-16T10:01:48.657Z,17.52
2022-09-16T10:02:50.017Z,17.54
2022-09-16T10:03:48.606Z,17.51
2022-09-16T10:04:48.549Z,17.71
2022-09-16T10:05:48.567Z,17.56
2022-09-16T10:06:48.556Z,17.49
2022-09-16T10:07:48.556Z,17.59
2022-09-16T10:08:48.542Z,17.57
2022-09-16T10:09:48.505Z,17.54
2022-09-16T10:10:48.494Z,17.46
2022-09-16T10:11:48.600Z,17.67
2022-09-16T10:12:48.507Z,17.56
2022-09-16T10:13:48.505Z,17.70
2022-09-16T10:14:48.481Z,17.83
2022-09-16T10:15:52.038Z,17.80
2022-09-16T10:16:48.511Z,17.87
2022-09-16T10:17:48.428Z,17.97
2022-09-16T10:18:48.436Z,18.05
2022-09-16T10:19:48.381Z,18.08
2022-09-16T10:20:48.381Z,18.08
2022-09-16T10:21:48.394Z,18.10
2022-09-16T10:22:48.353Z,17.86
2022-09-16T10:23:48.449Z,17.79
2022-09-16T10:24:48.367Z,17.89
2022-09-16T10:25:48.313Z,17.92
2022-09-16T10:26:48.356Z,17.94
2022-09-16T10:27:48.433Z,18.01
2022-09-16T10:28:48.325Z,18.04
2022-09-16T10:29:48.276Z,18.04
2022-09-16T10:30:48.264Z,18.20
2022-09-16T10:31:48.347Z,18.08
2022-09-16T10:32:48.245Z,18.22
2022-09-16T10:33:48.268Z,18.35
2022-09-16T10:34:48.266Z,18.56
2022-09-16T10:35:48.229Z,18.44
2022-09-16T10:36:48.196Z,18.65
2022-09-16T10:37:48.183Z,18.68
2022-09-16T10:38:48.174Z,18.84
2022-09-16T10:39:48.235Z,18.70
2022-09-16T10:40:48.167Z,18.70
2022-09-16T10:41:48.142Z,18.73
2022-09-16T10:42:48.143Z,18.62
2022-09-16T10:43:48.263Z,18.49
2022-09-16T10:44:48.113Z,18.66
2022-09-16T10:45:48.138Z,18.81
2022-09-16T10:46:48.104Z,18.73
2022-09-16T10:47:48.074Z,18.77
2022-09-16T10:48:48.112Z,18.81
2022-09-16T10:49:48.128Z,18.77
2022-09-16T10:50:48.037Z,18.80
2022-09-16T10:51:48.043Z,18.66
2022-09-16T10:52:48.048Z,18.47
2022-09-16T10:53:48.248Z,18.38
2022-09-16T10:54:47.996Z,18.44
2022-09-16T10:55:47.985Z,18.47
2022-09-16T10:56:48.016Z,18.62
2022-09-16T10:57:47.980Z,18.78
2022-09-16T10:58:47.953Z,18.88
2022-09-16T10:59:48.068Z,18.86
2022-09-16T11:00:48.037Z,18.81
2022-09-16T11:01:48.893Z,18.78
2022-09-16T11:02:47.916Z,18.93
2022-09-16T11:03:47.956Z,18.90
2022-09-16T11:04:47.889Z,19.02
2022-09-16T11:05:47.873Z,19.27
2022-09-16T11:06:47.947Z,19.30
2022-09-16T11:07:47.849Z,19.33
2022-09-16T11:08:47.892Z,19.30
2022-09-16T11:09:47.828Z,19.14
2022-09-16T11:10:47.823Z,19.27
2022-09-16T11:11:47.810Z,19.19
2022-09-16T11:12:47.825Z,19.21
2022-09-16T11:13:48.652Z,19.22
2022-09-16T11:14:47.785Z,19.40
2022-09-16T11:15:47.921Z,19.47
2022-09-16T11:16:47.761Z,19.62
2022-09-16T11:17:47.773Z,19.63
2022-09-16T11:18:50.821Z,19.59
2022-09-16T11:19:47.721Z,19.82
2022-09-16T11:20:47.741Z,19.85
2022-09-16T11:21:47.702Z,19.89
2022-09-16T11:22:47.740Z,19.54
2022-09-16T11:23:47.687Z,19.48
2022-09-16T11:24:47.698Z,19.39
2022-09-16T11:25:47.665Z,19.48
2022-09-16T11:26:47.661Z,19.47
2022-09-16T11:27:47.679Z,19.31
2022-09-16T11:28:47.711Z,19.19
2022-09-16T11:29:47.610Z,19.29
2022-09-16T11:30:47.643Z,19.37
2022-09-16T11:31:47.809Z,19.49
2022-09-16T11:32:47.743Z,19.52
2022-09-16T11:33:47.610Z,19.41
2022-09-16T11:34:47.624Z,19.22
2022-09-16T11:35:47.556Z,19.26
2022-09-16T11:36:47.536Z,19.29
2022-09-16T11:37:47.580Z,19.29
2022-09-16T11:38:47.537Z,19.29
2022-09-16T11:39:47.587Z,19.14
2022-09-16T11:40:47.547Z,19.09
2022-09-16T11:41:47.493Z,18.99
2022-09-16T11:42:47.481Z,18.93
2022-09-16T11:43:47.472Z,18.98
2022-09-16T11:44:47.447Z,19.04
2022-09-16T11:45:47.514Z,18.78
2022-09-16T11:46:47.469Z,18.74
2022-09-16T11:47:47.569Z,18.63
2022-09-16T11:48:47.466Z,18.71
2022-09-16T11:49:47.415Z,18.65
2022-09-16T11:50:47.418Z,18.70
2022-09-16T11:51:47.369Z,18.65
2022-09-16T11:52:47.527Z,18.73
2022-09-16T11:53:47.350Z,18.66
2022-09-16T11:54:47.338Z,18.66
2022-09-16T11:55:47.359Z,18.66
2022-09-16T11:56:47.311Z,18.73
2022-09-16T11:57:47.303Z,18.74
2022-09-16T11:58:47.390Z,18.66
2022-09-16T11:59:47.683Z,18.49
2022-09-16T12:00:47.285Z,18.40
2022-09-16T12:01:47.294Z,18.43
2022-09-16T12:02:47.332Z,18.45
2022-09-16T12:03:47.475Z,18.47
2022-09-16T12:04:47.273Z,18.65
2022-09-16T12:05:47.216Z,18.68
2022-09-16T12:06:47.249Z,18.50
2022-09-16T12:07:47.193Z,18.56
2022-09-16T12:08:47.271Z,18.65
2022-09-16T12:09:47.194Z,18.65
2022-09-16T12:10:47.285Z,18.52
2022-09-16T12:11:47.151Z,18.53
2022-09-16T12:12:47.172Z,18.37
2022-09-16T12:13:47.125Z,18.45
2022-09-16T12:14:47.116Z,18.40
2022-09-16T12:15:47.185Z,18.34
2022-09-16T12:16:47.127Z,18.28
2022-09-16T12:17:47.120Z,18.18
2022-09-16T12:18:47.121Z,18.11
2022-09-16T12:19:47.186Z,18.20
2022-09-16T12:20:47.052Z,18.10
2022-09-16T12:21:47.100Z,17.89
2022-09-16T12:22:47.027Z,18.07
2022-09-16T12:23:47.059Z,17.94
2022-09-16T12:24:47.014Z,17.92
2022-09-16T12:25:47.025Z,18.00
2022-09-16T12:26:46.994Z,18.05
2022-09-16T12:27:47.010Z,18.10
2022-09-16T12:28:46.997Z,17.98
2022-09-16T12:29:47.033Z,18.04
2022-09-16T12:30:46.985Z,18.00
2022-09-16T12:31:46.927Z,18.20
2022-09-16T12:32:46.951Z,18.28
2022-09-16T12:33:47.001Z,18.33
2022-09-16T12:34:46.927Z,18.43
2022-09-16T12:35:47.026Z,18.41
2022-09-16T12:36:46.889Z,18.44
2022-09-16T12:37:46.865Z,18.47
2022-09-16T12:38:46.949Z,18.40
2022-09-16T12:39:46.867Z,18.29
2022-09-16T12:40:46.829Z,18.34
2022-09-16T12:41:46.826Z,18.33
2022-09-16T12:42:46.880Z,18.25
2022-09-16T12:43:46.798Z,18.33
2022-09-16T12:44:46.825Z,18.22
2022-09-16T12:45:46.821Z,18.10
2022-09-16T12:46:46.866Z,18.15
2022-09-16T12:47:46.792Z,18.29
2022-09-16T12:48:46.771Z,18.49
2022-09-16T12:49:46.733Z,18.38
2022-09-16T12:50:46.723Z,18.40
2022-09-16T12:51:50.231Z,18.31
2022-09-16T12:52:46.778Z,18.43